createdAt,value
2022-09-20T00:00:46.613Z,2.40
2022-09-20T00:03:27.066Z,2.40
2022-09-20T00:05:54.046Z,2.22
2022-09-20T00:08:20.815Z,1.83
2022-09-20T00:10:47.962Z,2.65
2022-09-20T00:13:15.002Z,2.13
2022-09-20T00:15:43.130Z,2.28
2022-09-20T00:18:10.090Z,2.20
2022-09-20T00:20:37.774Z,2.45
2022-09-20T00:23:04.522Z,2.25
2022-09-20T00:25:31.318Z,2.30
2022-09-20T00:27:58.702Z,2.22
2022-09-20T00:30:25.510Z,2.20
2022-09-20T00:32:52.325Z,2.25
2022-09-20T00:35:19.361Z,2.22
2022-09-20T00:37:46.198Z,1.83
2022-09-20T00:40:16.145Z,2.08
2022-09-20T00:42:43.241Z,1.83
2022-09-20T00:45:23.251Z,1.98
2022-09-20T00:48:25.785Z,2.35
2022-09-20T00:50:58.333Z,1.83
2022-09-20T00:53:30.685Z,1.70
2022-09-20T00:56:17.931Z,1.83
2022-09-20T00:59:19.240Z,2.20
2022-09-20T01:01:47.306Z,2.15
2022-09-20T01:04:14.485Z,2.15
2022-09-20T01:06:41.549Z,2.28
2022-09-20T01:09:08.328Z,1.77
2022-09-20T01:11:35.478Z,1.83
2022-09-20T01:14:02.283Z,1.85
2022-09-20T01:16:30.369Z,2.22
2022-09-20T01:18:58.305Z,1.90
2022-09-20T01:21:25.095Z,1.52
2022-09-20T01:24:00.505Z,1.77
2022-09-20T01:27:01.743Z,1.80
2022-09-20T01:29:40.229Z,1.52
2022-09-20T01:32:11.849Z,1.92
2022-09-20T01:34:44.978Z,1.60
2022-09-20T01:37:21.101Z,1.83
2022-09-20T01:40:05.437Z,1.27
2022-09-20T01:42:33.761Z,1.48
2022-09-20T01:45:29.501Z,1.17
2022-09-20T01:50:56.128Z,1.55
2022-09-20T01:53:38.456Z,1.58
2022-09-20T01:56:23.320Z,1.42
2022-09-20T01:59:22.127Z,1.00
2022-09-20T02:02:13.295Z,1.08
2022-09-20T02:05:04.848Z,1.48
2022-09-20T02:07:45.771Z,1.40
2022-09-20T02:10:32.482Z,1.10
2022-09-20T02:13:03.225Z,1.05
2022-09-20T02:15:49.015Z,1.38
2022-09-20T02:18:20.915Z,0.85
2022-09-20T02:20:50.982Z,1.63
2022-09-20T02:23:22.547Z,1.30
2022-09-20T02:26:00.463Z,1.20
2022-09-20T02:28:30.231Z,1.20
2022-09-20T02:31:12.905Z,1.10
2022-09-20T02:33:47.454Z,1.17
2022-09-20T02:36:20.486Z,1.40
2022-09-20T02:39:00.254Z,0.90
2022-09-20T02:41:27.322Z,1.30
2022-09-20T02:44:18.809Z,1.10
2022-09-20T02:46:51.406Z,1.13
2022-09-20T02:49:41.306Z,1.00
2022-09-20T02:52:35.600Z,1.20
2022-09-20T02:55:54.743Z,0.85
2022-09-20T02:58:34.048Z,0.75
2022-09-20T03:01:30.179Z,1.00
2022-09-20T03:04:25.636Z,0.75
2022-09-20T03:07:01.563Z,1.00
2022-09-20T03:09:43.539Z,1.00
2022-09-20T03:12:23.510Z,1.00
2022-09-20T03:15:05.657Z,0.75
2022-09-20T03:17:47.186Z,0.95
2022-09-20T03:20:36.018Z,0.90
2022-09-20T03:23:05.447Z,1.17
2022-09-20T03:25:59.837Z,0.82
2022-09-20T03:28:48.797Z,0.80
2022-09-20T03:31:24.850Z,1.10
2022-09-20T03:34:07.513Z,0.80
2022-09-20T03:36:52.958Z,0.70
2022-09-20T03:39:57.145Z,0.90
2022-09-20T03:42:29.377Z,0.70
2022-09-20T03:45:14.895Z,0.93
2022-09-20T03:50:33.012Z,0.70
2022-09-20T03:53:32.545Z,1.00
2022-09-20T03:56:11.328Z,0.65
2022-09-20T03:59:06.620Z,0.90
2022-09-20T04:01:51.828Z,0.75
2022-09-20T04:04:25.032Z,0.70
2022-09-20T04:07:04.613Z,1.10
2022-09-20T04:09:51.835Z,1.00
2022-09-20T04:12:42.606Z,1.20
2022-09-20T04:15:12.634Z,0.98
2022-09-20T04:17:54.726Z,0.90
2022-09-20T04:20:40.618Z,0.68
2022-09-20T04:23:30.027Z,0.80
2022-09-20T04:25:57.267Z,0.70
2022-09-20T04:28:26.836Z,0.60
2022-09-20T04:30:55.399Z,0.80
2022-09-20T04:33:26.386Z,1.08
2022-09-20T04:36:30.459Z,0.95
2022-09-20T04:39:20.934Z,0.88
2022-09-20T04:42:08.082Z,0.80
2022-09-20T04:45:12.649Z,0.98
2022-09-20T04:47:39.479Z,0.90
2022-09-20T04:50:12.733Z,0.70
2022-09-20T04:53:06.986Z,1.05
2022-09-20T04:55:45.921Z,1.05
2022-09-20T04:58:38.739Z,0.80
2022-09-20T05:01:16.705Z,0.93
2022-09-20T05:04:08.881Z,0.73
2022-09-20T05:07:04.443Z,0.85
2022-09-20T05:09:43.421Z,0.88
2022-09-20T05:12:36.069Z,1.00
2022-09-20T05:15:08.375Z,1.00
2022-09-20T05:17:55.569Z,1.10
2022-09-20T05:20:26.845Z,1.75
2022-09-20T05:22:53.886Z,1.73
2022-09-20T05:25:30.456Z,1.83
2022-09-20T05:28:19.324Z,2.47
2022-09-20T05:30:54.244Z,3.10
2022-09-20T05:33:40.088Z,3.05
2022-09-20T05:36:34.804Z,2.97
2022-09-20T05:39:14.254Z,3.07
2022-09-20T05:41:46.757Z,3.65
2022-09-20T05:44:19.904Z,3.38
2022-09-20T05:47:11.386Z,3.47
2022-09-20T05:49:47.436Z,3.22
2022-09-20T05:52:50.911Z,3.45
2022-09-20T05:55:42.874Z,2.90
2022-09-20T05:58:18.602Z,3.45
2022-09-20T06:00:49.624Z,3.03
2022-09-20T06:03:55.891Z,3.13
2022-09-20T06:11:51.219Z,3.78
2022-09-20T06:14:20.894Z,3.45
2022-09-20T06:16:56.978Z,3.20
2022-09-20T06:19:29.473Z,3.65
2022-09-20T06:21:59.824Z,2.83
2022-09-20T06:24:49.350Z,3.35
2022-09-20T06:27:24.372Z,2.80
2022-09-20T06:30:02.076Z,2.80
2022-09-20T06:32:29.129Z,2.55
2022-09-20T06:34:55.918Z,2.40
2022-09-20T06:37:47.539Z,2.20
2022-09-20T06:40:40.015Z,1.75
2022-09-20T06:43:06.898Z,1.85
2022-09-20T06:45:34.132Z,1.65
2022-09-20T06:48:02.303Z,1.80
2022-09-20T06:50:29.101Z,1.90
2022-09-20T06:52:56.670Z,1.85
2022-09-20T06:55:41.355Z,1.30
2022-09-20T06:58:09.864Z,1.60
2022-09-20T07:00:37.038Z,1.40
2022-09-20T07:03:04.075Z,1.40
2022-09-20T07:05:31.123Z,0.88
2022-09-20T07:07:58.746Z,1.52
2022-09-20T07:10:28.114Z,1.20
2022-09-20T07:12:59.639Z,1.23
2022-09-20T07:15:28.259Z,1.30
2022-09-20T07:17:55.583Z,1.33
2022-09-20T07:20:22.999Z,1.15
2022-09-20T07:22:49.801Z,1.50
2022-09-20T07:25:18.216Z,1.30
2022-09-20T07:27:46.469Z,1.50
2022-09-20T07:30:14.345Z,1.77
2022-09-20T07:32:41.204Z,1.20
2022-09-20T07:35:09.632Z,0.98
2022-09-20T07:37:37.310Z,1.60
2022-09-20T07:40:05.277Z,1.23
2022-09-20T07:42:32.488Z,1.35
2022-09-20T07:45:00.144Z,0.90
2022-09-20T07:47:27.740Z,1.58
2022-09-20T07:49:55.433Z,1.17
2022-09-20T07:52:22.272Z,1.30
2022-09-20T07:54:50.026Z,1.48
2022-09-20T07:57:17.091Z,1.13
2022-09-20T07:59:43.981Z,1.38
2022-09-20T08:02:14.696Z,1.77
2022-09-20T08:04:41.743Z,1.63
2022-09-20T08:07:08.576Z,1.55
2022-09-20T08:09:35.398Z,1.77
2022-09-20T08:14:49.606Z,1.60
2022-09-20T08:17:16.587Z,1.08
2022-09-20T08:19:44.623Z,1.27
2022-09-20T08:22:12.630Z,1.80
2022-09-20T08:24:39.720Z,1.70
2022-09-20T08:27:06.551Z,2.15
2022-09-20T08:29:33.368Z,2.35
2022-09-20T08:32:02.202Z,1.80
2022-09-20T08:34:29.055Z,2.42
2022-09-20T08:36:56.635Z,1.50
2022-09-20T08:42:20.312Z,1.95
2022-09-20T08:45:01.736Z,1.60
2022-09-20T08:47:33.294Z,1.67
2022-09-20T08:50:00.947Z,1.40
2022-09-20T08:52:37.216Z,1.85
2022-09-20T08:55:19.903Z,1.25
2022-09-20T08:57:51.072Z,1.58
2022-09-20T09:00:20.188Z,1.25
2022-09-20T09:02:47.110Z,1.88
2022-09-20T09:05:37.852Z,1.60
2022-09-20T09:08:16.064Z,1.77
2022-09-20T09:10:47.931Z,1.23
2022-09-20T09:13:29.187Z,1.33
2022-09-20T09:15:59.800Z,1.25
2022-09-20T09:18:31.951Z,1.30
2022-09-20T09:20:59.321Z,1.08
2022-09-20T09:23:27.195Z,1.20
2022-09-20T09:25:54.763Z,1.25
2022-09-20T09:28:25.765Z,1.35
2022-09-20T09:30:52.603Z,1.20
2022-09-20T09:33:34.000Z,1.30
2022-09-20T09:36:03.814Z,1.10
2022-09-20T09:38:33.550Z,0.90
2022-09-20T09:41:05.548Z,1.10
2022-09-20T09:43:35.490Z,0.80
2022-09-20T09:46:18.800Z,0.95
2022-09-20T09:48:50.183Z,1.40
2022-09-20T09:51:19.558Z,1.00
2022-09-20T09:53:49.097Z,1.10
2022-09-20T09:56:17.139Z,0.90
2022-09-20T09:59:14.342Z,1.02
2022-09-20T10:02:20.170Z,1.23
2022-09-20T10:04:52.275Z,1.60
2022-09-20T10:07:37.660Z,1.73
2022-09-20T10:10:10.475Z,1.52
2022-09-20T10:12:37.819Z,1.65
2022-09-20T10:15:10.359Z,1.50
2022-09-20T10:18:14.231Z,1.40
2022-09-20T10:20:53.882Z,1.83
2022-09-20T10:24:02.145Z,1.52
2022-09-20T10:26:50.814Z,1.73
2022-09-20T10:29:26.323Z,1.40
2022-09-20T10:32:15.498Z,1.73
2022-09-20T10:35:01.981Z,2.13
2022-09-20T10:38:01.884Z,1.75
2022-09-20T10:40:56.466Z,2.00
2022-09-20T10:43:53.145Z,2.05
2022-09-20T10:46:40.347Z,2.28
2022-09-20T10:49:25.458Z,2.72
2022-09-20T10:52:31.349Z,2.22
2022-09-20T10:55:20.459Z,2.30
2022-09-20T10:58:15.802Z,2.05
2022-09-20T11:00:51.192Z,2.83
2022-09-20T11:03:38.172Z,2.70
2022-09-20T11:06:17.741Z,3.00
2022-09-20T11:08:45.246Z,3.22
2022-09-20T11:11:34.756Z,3.15
2022-09-20T11:14:06.209Z,3.53
2022-09-20T11:16:48.116Z,3.13
2022-09-20T11:19:31.463Z,3.10
2022-09-20T11:22:21.784Z,3.20
2022-09-20T11:25:11.187Z,3.00
2022-09-20T11:27:41.623Z,3.08
2022-09-20T11:30:21.937Z,3.47
2022-09-20T11:32:55.119Z,2.70
2022-09-20T11:35:22.427Z,2.88
2022-09-20T11:38:00.635Z,2.25
2022-09-20T11:40:29.981Z,2.40
2022-09-20T11:42:57.822Z,1.90
2022-09-20T11:45:28.301Z,1.80
2022-09-20T11:48:00.089Z,1.50
2022-09-20T11:50:48.293Z,1.58
2022-09-20T11:53:45.948Z,1.90
2022-09-20T11:56:17.931Z,1.60
2022-09-20T11:58:49.920Z,1.77
2022-09-20T12:01:30.544Z,1.10
2022-09-20T12:04:39.039Z,1.42
2022-09-20T12:07:27.091Z,1.58
2022-09-20T12:10:18.787Z,1.58
2022-09-20T12:12:47.395Z,1.80
2022-09-20T12:15:31.634Z,2.30
2022-09-20T12:17:58.396Z,2.60
2022-09-20T12:20:44.844Z,2.08
2022-09-20T12:23:42.744Z,2.05
2022-09-20T12:26:22.078Z,2.33
2022-09-20T12:28:53.085Z,2.47
2022-09-20T12:31:26.020Z,2.17
2022-09-20T12:34:10.507Z,2.00
2022-09-20T12:37:10.451Z,2.33
2022-09-20T12:39:38.392Z,1.75
2022-09-20T12:42:11.738Z,1.98
2022-09-20T12:44:55.205Z,2.17
2022-09-20T12:47:23.225Z,2.22
2022-09-20T12:50:13.463Z,1.58
2022-09-20T12:53:00.514Z,1.88
2022-09-20T12:55:30.242Z,1.48
2022-09-20T12:58:15.529Z,1.95
2022-09-20T13:01:01.169Z,1.55
2022-09-20T13:03:38.642Z,1.42
2022-09-20T13:06:10.912Z,1.75
2022-09-20T13:08:59.843Z,1.80
2022-09-20T13:11:40.558Z,1.30
2022-09-20T13:14:13.738Z,1.33
2022-09-20T13:16:53.006Z,1.33
2022-09-20T13:19:28.524Z,1.10
2022-09-20T13:24:22.228Z,1.00
2022-09-20T13:26:49.272Z,1.58
2022-09-20T13:29:43.070Z,1.40
2022-09-20T13:32:17.794Z,1.35
2022-09-20T13:34:45.776Z,1.30
2022-09-20T13:37:23.703Z,1.70
2022-09-20T13:39:54.984Z,1.70
2022-09-20T13:42:22.212Z,1.48
2022-09-20T13:44:49.056Z,1.73
2022-09-20T13:47:23.523Z,1.77
2022-09-20T13:49:50.805Z,2.45
2022-09-20T13:52:26.738Z,2.03
2022-09-20T13:54:55.348Z,2.08
2022-09-20T13:57:23.637Z,2.55
2022-09-20T13:59:50.518Z,1.95
2022-09-20T14:02:32.633Z,2.90
2022-09-20T14:05:00.837Z,2.60
2022-09-20T14:07:28.513Z,2.83
2022-09-20T14:09:55.831Z,3.28
2022-09-20T14:12:25.841Z,2.45
2022-09-20T14:14:53.005Z,2.50
2022-09-20T14:17:21.773Z,2.92
2022-09-20T14:19:49.741Z,2.22
2022-09-20T14:22:24.841Z,1.88
2022-09-20T14:24:59.591Z,2.20
2022-09-20T14:27:26.764Z,2.28
2022-09-20T14:29:53.977Z,2.28
2022-09-20T14:32:20.810Z,2.05
2022-09-20T14:35:06.994Z,2.15
2022-09-20T14:40:27.769Z,2.17
2022-09-20T14:42:55.469Z,2.45
2022-09-20T14:45:32.327Z,1.83
2022-09-20T14:48:10.696Z,2.08
2022-09-20T14:50:45.707Z,2.30
2022-09-20T14:53:12.766Z,2.13
2022-09-20T14:55:41.523Z,2.47
2022-09-20T14:58:13.467Z,2.58
2022-09-20T15:00:50.750Z,2.40
2022-09-20T15:03:29.788Z,2.40
2022-09-20T15:05:56.869Z,2.08
2022-09-20T15:08:23.751Z,2.42
2022-09-20T15:10:50.794Z,2.63
2022-09-20T15:13:18.183Z,2.53
2022-09-20T15:15:47.427Z,2.88
2022-09-20T15:18:27.792Z,3.38
2022-09-20T15:20:55.001Z,2.58
2022-09-20T15:23:21.966Z,2.50
2022-09-20T15:25:52.991Z,2.67
2022-09-20T15:28:20.419Z,2.03
2022-09-20T15:30:48.727Z,2.80
2022-09-20T15:33:15.498Z,2.80
2022-09-20T15:35:42.884Z,3.08
2022-09-20T15:38:11.730Z,2.85
2022-09-20T15:40:42.830Z,3.00
2022-09-20T15:43:13.327Z,3.58
2022-09-20T15:45:50.314Z,3.20
2022-09-20T15:48:24.910Z,3.28
2022-09-20T15:51:00.507Z,3.13
2022-09-20T15:53:35.308Z,3.22
2022-09-20T15:56:15.231Z,3.47
2022-09-20T15:58:59.389Z,3.22
2022-09-20T16:01:28.200Z,3.47
2022-09-20T16:03:55.684Z,3.10
2022-09-20T16:06:23.234Z,3.50
2022-09-20T16:08:50.423Z,3.80
2022-09-20T16:11:22.889Z,4.35
2022-09-20T16:13:57.535Z,3.83
2022-09-20T16:16:25.421Z,4.22
2022-09-20T16:19:10.821Z,4.03
2022-09-20T16:24:07.488Z,4.22
2022-09-20T16:26:34.567Z,3.97
2022-09-20T16:29:02.577Z,4.20
2022-09-20T16:31:42.566Z,4.80
2022-09-20T16:34:21.869Z,4.35
2022-09-20T16:36:53.891Z,5.35
2022-09-20T16:39:21.611Z,4.57
2022-09-20T16:41:48.743Z,4.75
2022-09-20T16:44:15.695Z,4.63
2022-09-20T16:46:44.555Z,4.88
2022-09-20T16:49:13.086Z,5.60
2022-09-20T16:51:40.955Z,5.30
2022-09-20T16:54:12.696Z,5.72
2022-09-20T16:56:41.207Z,5.72
2022-09-20T16:59:08.123Z,6.15
2022-09-20T17:01:36.863Z,6.18
2022-09-20T17:04:07.360Z,6.22
2022-09-20T17:06:34.851Z,5.65
2022-09-20T17:09:02.054Z,6.50
2022-09-20T17:11:33.466Z,5.43
2022-09-20T17:14:00.287Z,5.95
2022-09-20T17:16:49.303Z,5.68
2022-09-20T17:19:20.246Z,6.30
2022-09-20T17:21:52.907Z,5.85
2022-09-20T17:24:20.465Z,6.68
2022-09-20T17:26:47.488Z,6.65
2022-09-20T17:29:16.189Z,6.82
2022-09-20T17:31:48.790Z,7.60
2022-09-20T17:34:21.521Z,7.30
2022-09-20T17:36:48.914Z,6.85
2022-09-20T17:39:16.064Z,7.13
2022-09-20T17:41:44.959Z,7.90
2022-09-20T17:44:12.319Z,7.57
2022-09-20T17:46:40.714Z,8.63
2022-09-20T17:49:09.461Z,7.88
2022-09-20T17:51:38.755Z,7.25
2022-09-20T17:54:06.110Z,8.32
2022-09-20T17:56:33.473Z,8.13
2022-09-20T17:59:04.522Z,7.88
2022-09-20T18:01:32.824Z,7.75
2022-09-20T18:04:01.220Z,8.27
2022-09-20T18:06:29.736Z,8.23
2022-09-20T18:09:03.930Z,7.65
2022-09-20T18:11:37.673Z,6.80
2022-09-20T18:14:06.187Z,7.78
2022-09-20T18:16:34.973Z,7.78
2022-09-20T18:19:02.110Z,8.43
2022-09-20T18:21:30.342Z,7.85
2022-09-20T18:23:57.651Z,7.68
2022-09-20T18:26:25.917Z,7.80
2022-09-20T18:29:02.880Z,7.25
2022-09-20T18:31:44.714Z,7.20
2022-09-20T18:34:18.795Z,8.65
2022-09-20T18:36:55.829Z,7.38
2022-09-20T18:39:23.310Z,9.18
2022-09-20T18:41:50.670Z,8.68
2022-09-20T18:44:18.567Z,9.00
2022-09-20T18:46:46.163Z,7.50
2022-09-20T18:49:15.143Z,7.97
2022-09-20T18:51:42.491Z,8.52
2022-09-20T18:54:10.520Z,8.90
2022-09-20T18:56:41.617Z,8.90
2022-09-20T18:59:15.823Z,8.40
2022-09-20T19:01:58.137Z,8.33
2022-09-20T19:04:27.512Z,9.30
2022-09-20T19:07:10.191Z,8.48
2022-09-20T19:09:39.551Z,7.90
2022-09-20T19:12:23.447Z,8.13
2022-09-20T19:15:13.459Z,8.00
2022-09-20T19:17:53.091Z,8.85
2022-09-20T19:20:28.666Z,8.27
2022-09-20T19:23:25.473Z,8.20
2022-09-20T19:26:18.875Z,7.82
2022-09-20T19:28:47.329Z,8.50
2022-09-20T19:31:21.262Z,7.78
2022-09-20T19:33:48.637Z,8.18
2022-09-20T19:36:16.939Z,8.02
2022-09-20T19:38:52.079Z,7.65
2022-09-20T19:42:14.792Z,7.57
2022-09-20T19:45:14.822Z,7.50
2022-09-20T19:47:54.917Z,8.32
2022-09-20T19:50:45.378Z,8.48
2022-09-20T19:53:14.819Z,8.68
2022-09-20T19:55:46.327Z,8.25
2022-09-20T19:58:14.228Z,7.80
2022-09-20T20:00:44.380Z,7.60
2022-09-20T20:03:15.349Z,7.50
2022-09-20T20:06:05.701Z,8.02
2022-09-20T20:08:50.768Z,8.35
2022-09-20T20:11:26.544Z,7.53
2022-09-20T20:14:03.245Z,8.55
2022-09-20T20:16:58.434Z,7.53
2022-09-20T20:19:57.593Z,6.88
2022-09-20T20:22:37.787Z,7.30
2022-09-20T20:25:05.183Z,7.35
2022-09-20T20:27:32.643Z,8.10
2022-09-20T20:29:59.774Z,7.00
2022-09-20T20:32:26.944Z,7.25
2022-09-20T20:34:54.002Z,7.68
2022-09-20T20:37:24.325Z,7.80
2022-09-20T20:39:52.170Z,7.45
2022-09-20T20:42:19.670Z,7.32
2022-09-20T20:44:47.532Z,6.28
2022-09-20T20:47:14.369Z,6.57
2022-09-20T20:49:42.340Z,6.68
2022-09-20T20:52:09.664Z,6.75
2022-09-20T20:54:36.461Z,6.13
2022-09-20T20:57:03.520Z,6.50
2022-09-20T20:59:30.284Z,6.47
2022-09-20T21:01:57.302Z,6.07
2022-09-20T21:04:25.359Z,5.82
2022-09-20T21:06:52.151Z,6.18
2022-09-20T21:09:18.947Z,6.63
2022-09-20T21:11:48.375Z,6.38
2022-09-20T21:14:58.167Z,6.28
2022-09-20T21:17:25.586Z,5.13
2022-09-20T21:19:52.383Z,6.18
2022-09-20T21:22:19.115Z,6.70
2022-09-20T21:24:47.040Z,6.03
2022-09-20T21:27:13.879Z,6.88
2022-09-20T21:29:40.613Z,7.80
2022-09-20T21:35:49.029Z,6.50
2022-09-20T21:38:16.219Z,5.50
2022-09-20T21:40:43.380Z,5.70
2022-09-20T21:43:10.163Z,6.15
2022-09-20T21:45:39.367Z,6.30
2022-09-20T21:48:07.725Z,5.78
2022-09-20T21:50:34.487Z,6.38
2022-09-20T21:53:01.499Z,5.82
2022-09-20T21:55:28.349Z,5.90
2022-09-20T21:57:55.123Z,5.53
2022-09-20T22:00:22.227Z,5.82
2022-09-20T22:02:49.045Z,5.47
2022-09-20T22:05:15.986Z,5.32
2022-09-20T22:07:42.970Z,5.40
2022-09-20T22:10:09.824Z,5.07
2022-09-20T22:12:36.599Z,5.53
2022-09-20T22:15:03.899Z,4.75
2022-09-20T22:17:30.716Z,5.13
2022-09-20T22:19:58.197Z,4.32
2022-09-20T22:22:25.234Z,4.93
2022-09-20T22:24:52.006Z,4.35
2022-09-20T22:27:18.829Z,4.82
2022-09-20T22:30:32.554Z,4.78
2022-09-20T22:32:59.377Z,4.55
2022-09-20T22:35:26.373Z,4.88
2022-09-20T22:37:53.132Z,4.85
2022-09-20T22:40:19.983Z,4.28
2022-09-20T22:42:47.003Z,4.70
2022-09-20T22:45:13.786Z,4.10
2022-09-20T22:47:40.542Z,4.03
2022-09-20T22:50:07.974Z,4.05
2022-09-20T22:52:34.719Z,4.40
2022-09-20T22:55:01.522Z,4.22
2022-09-20T22:57:28.615Z,3.97
2022-09-20T22:59:55.414Z,4.28
2022-09-20T23:02:22.246Z,3.75
2022-09-20T23:04:49.378Z,3.92
2022-09-20T23:07:16.185Z,3.90
2022-09-20T23:09:42.994Z,3.40
2022-09-20T23:12:09.979Z,3.03
2022-09-20T23:14:36.800Z,3.25
2022-09-20T23:17:03.556Z,3.70
2022-09-20T23:19:30.592Z,3.80
2022-09-20T23:21:57.364Z,3.95
2022-09-20T23:24:24.192Z,3.45
2022-09-20T23:26:51.499Z,3.30
2022-09-20T23:29:18.327Z,3.05
2022-09-20T23:31:46.696Z,3.33
2022-09-20T23:34:14.954Z,3.67
2022-09-20T23:36:41.998Z,3.42
2022-09-20T23:39:09.180Z,3.58
2022-09-20T23:41:36.780Z,3.05
2022-09-20T23:44:09.660Z,3.03
2022-09-20T23:46:36.594Z,2.53
2022-09-20T23:49:03.812Z,3.15
2022-09-20T23:51:30.860Z,2.72
2022-09-20T23:53:57.744Z,2.55
2022-09-20T23:56:24.887Z,2.78
2022-09-20T23:58:51.817Z,2.63
